sensor_id;sensor_type;location;lat;lon;timestamp;temperature;humidity
32536;DHT22;18974;50.838;4.636;2022-11-20T00:01:27;6.00;99.90
32536;DHT22;18974;50.838;4.636;2022-11-20T00:03:54;6.10;99.90
32536;DHT22;18974;50.838;4.636;2022-11-20T00:06:22;6.10;99.90
32536;DHT22;18974;50.838;4.636;2022-11-20T00:08:48;5.90;99.90
32536;DHT22;18974;50.838;4.636;2022-11-20T00:11:19;5.90;99.90
32536;DHT22;18974;50.838;4.636;2022-11-20T00:13:46;5.90;99.90
32536;DHT22;18974;50.838;4.636;2022-11-20T00:16:14;5.80;99.90
32536;DHT22;18974;50.838;4.636;2022-11-20T00:18:40;5.90;99.90
32536;DHT22;18974;50.838;4.636;2022-11-20T00:21:11;5.80;99.90
32536;DHT22;18974;50.838;4.636;2022-11-20T00:23:37;5.80;99.90
32536;DHT22;18974;50.838;4.636;2022-11-20T00:26:08;5.70;99.90
32536;DHT22;18974;50.838;4.636;2022-11-20T00:28:34;5.70;99.90
32536;DHT22;18974;50.838;4.636;2022-11-20T00:31:10;5.80;99.90
32536;DHT22;18974;50.838;4.636;2022-11-20T00:33:37;5.80;99.90
32536;DHT22;18974;50.838;4.636;2022-11-20T00:36:07;5.80;99.90
32536;DHT22;18974;50.838;4.636;2022-11-20T00:38:34;5.80;99.90
32536;DHT22;18974;50.838;4.636;2022-11-20T00:41:02;5.80;99.90
32536;DHT22;18974;50.838;4.636;2022-11-20T00:43:28;5.70;99.90
32536;DHT22;18974;50.838;4.636;2022-11-20T00:46:00;5.70;99.90
32536;DHT22;18974;50.838;4.636;2022-11-20T00:48:27;5.70;99.90
32536;DHT22;18974;50.838;4.636;2022-11-20T00:50:53;5.70;99.90
32536;DHT22;18974;50.838;4.636;2022-11-20T00:53:19;5.60;99.90
32536;DHT22;18974;50.838;4.636;2022-11-20T00:55:59;5.70;99.90
32536;DHT22;18974;50.838;4.636;2022-11-20T00:58:29;5.70;99.90
32536;DHT22;18974;50.838;4.636;2022-11-20T01:01:04;5.70;99.90
32536;DHT22;18974;50.838;4.636;2022-11-20T01:03:34;5.60;99.90
32536;DHT22;18974;50.838;4.636;2022-11-20T01:06:02;5.60;99.90
32536;DHT22;18974;50.838;4.636;2022-11-20T01:08:32;5.70;99.90
32536;DHT22;18974;50.838;4.636;2022-11-20T01:11:02;5.70;99.90
32536;DHT22;18974;50.838;4.636;2022-11-20T01:13:29;5.70;99.90
32536;DHT22;18974;50.838;4.636;2022-11-20T01:18:34;5.70;99.90
32536;DHT22;18974;50.838;4.636;2022-11-20T01:21:09;5.70;99.90
32536;DHT22;18974;50.838;4.636;2022-11-20T01:23:37;5.60;99.90
32536;DHT22;18974;50.838;4.636;2022-11-20T01:26:04;5.60;99.90
32536;DHT22;18974;50.838;4.636;2022-11-20T01:28:31;5.50;99.90
32536;DHT22;18974;50.838;4.636;2022-11-20T01:30:57;5.50;99.90
32536;DHT22;18974;50.838;4.636;2022-11-20T01:33:23;5.60;99.90
32536;DHT22;18974;50.838;4.636;2022-11-20T01:35:49;5.50;99.90
32536;DHT22;18974;50.838;4.636;2022-11-20T01:38:15;5.40;99.90
32536;DHT22;18974;50.838;4.636;2022-11-20T01:40:42;5.40;99.90
32536;DHT22;18974;50.838;4.636;2022-11-20T01:43:17;5.40;99.90
32536;DHT22;18974;50.838;4.636;2022-11-20T01:49:00;5.50;99.90
32536;DHT22;18974;50.838;4.636;2022-11-20T01:51:28;5.60;99.90
32536;DHT22;18974;50.838;4.636;2022-11-20T01:53:58;5.50;99.90
32536;DHT22;18974;50.838;4.636;2022-11-20T01:56:26;5.50;99.90
32536;DHT22;18974;50.838;4.636;2022-11-20T01:58:55;5.50;99.90
32536;DHT22;18974;50.838;4.636;2022-11-20T02:01:22;5.50;99.90
32536;DHT22;18974;50.838;4.636;2022-11-20T02:03:49;5.60;99.90
32536;DHT22;18974;50.838;4.636;2022-11-20T02:06:32;5.50;99.90
32536;DHT22;18974;50.838;4.636;2022-11-20T02:09:00;5.40;99.90
32536;DHT22;18974;50.838;4.636;2022-11-20T02:11:26;5.50;99.90
32536;DHT22;18974;50.838;4.636;2022-11-20T02:13:52;5.50;99.90
32536;DHT22;18974;50.838;4.636;2022-11-20T02:16:31;5.60;99.90
32536;DHT22;18974;50.838;4.636;2022-11-20T02:19:00;5.60;99.90
32536;DHT22;18974;50.838;4.636;2022-11-20T02:21:28;5.60;99.90
32536;DHT22;18974;50.838;4.636;2022-11-20T02:24:02;5.50;99.90
32536;DHT22;18974;50.838;4.636;2022-11-20T02:26:31;5.50;99.90
32536;DHT22;18974;50.838;4.636;2022-11-20T02:28:59;5.50;99.90
32536;DHT22;18974;50.838;4.636;2022-11-20T02:31:26;5.50;99.90
32536;DHT22;18974;50.838;4.636;2022-11-20T02:33:58;5.60;99.90
32536;DHT22;18974;50.838;4.636;2022-11-20T02:36:26;5.60;99.90
32536;DHT22;18974;50.838;4.636;2022-11-20T02:38:53;5.60;99.90
32536;DHT22;18974;50.838;4.636;2022-11-20T02:41:19;5.60;99.90
32536;DHT22;18974;50.838;4.636;2022-11-20T02:43:45;5.60;99.90
32536;DHT22;18974;50.838;4.636;2022-11-20T02:46:10;5.70;99.90
32536;DHT22;18974;50.838;4.636;2022-11-20T02:48:36;5.60;99.90
32536;DHT22;18974;50.838;4.636;2022-11-20T02:51:02;5.60;99.90
32536;DHT22;18974;50.838;4.636;2022-11-20T02:53:28;5.50;99.90
32536;DHT22;18974;50.838;4.636;2022-11-20T02:55:53;5.70;99.90
32536;DHT22;18974;50.838;4.636;2022-11-20T02:58:19;5.70;99.90
32536;DHT22;18974;50.838;4.636;2022-11-20T03:00:45;5.70;99.90
32536;DHT22;18974;50.838;4.636;2022-11-20T03:03:11;5.70;99.90
32536;DHT22;18974;50.838;4.636;2022-11-20T03:05:36;5.70;99.90
32536;DHT22;18974;50.838;4.636;2022-11-20T03:08:02;5.80;99.90
32536;DHT22;18974;50.838;4.636;2022-11-20T03:10:28;5.80;99.90
32536;DHT22;18974;50.838;4.636;2022-11-20T03:12:56;5.90;99.90
32536;DHT22;18974;50.838;4.636;2022-11-20T03:15:23;5.90;99.90
32536;DHT22;18974;50.838;4.636;2022-11-20T03:17:52;5.90;99.90
32536;DHT22;18974;50.838;4.636;2022-11-20T03:20:18;5.80;99.90
32536;DHT22;18974;50.838;4.636;2022-11-20T03:22:43;5.90;99.90
32536;DHT22;18974;50.838;4.636;2022-11-20T03:25:09;5.80;99.90
32536;DHT22;18974;50.838;4.636;2022-11-20T03:27:35;5.90;99.90
32536;DHT22;18974;50.838;4.636;2022-11-20T03:30:01;5.90;99.90
32536;DHT22;18974;50.838;4.636;2022-11-20T03:32:26;5.80;99.90
32536;DHT22;18974;50.838;4.636;2022-11-20T03:34:52;5.80;99.90
32536;DHT22;18974;50.838;4.636;2022-11-20T03:37:18;5.80;99.90
32536;DHT22;18974;50.838;4.636;2022-11-20T03:39:43;5.90;99.90
32536;DHT22;18974;50.838;4.636;2022-11-20T03:42:09;6.00;99.90
32536;DHT22;18974;50.838;4.636;2022-11-20T03:44:55;6.00;99.90
32536;DHT22;18974;50.838;4.636;2022-11-20T03:47:21;6.00;99.90
32536;DHT22;18974;50.838;4.636;2022-11-20T03:49:46;5.90;99.90
32536;DHT22;18974;50.838;4.636;2022-11-20T03:52:12;5.80;99.90
32536;DHT22;18974;50.838;4.636;2022-11-20T03:54:38;5.90;99.90
32536;DHT22;18974;50.838;4.636;2022-11-20T03:57:03;5.90;99.90
32536;DHT22;18974;50.838;4.636;2022-11-20T03:59:29;5.90;99.90
32536;DHT22;18974;50.838;4.636;2022-11-20T04:01:55;6.00;99.90
32536;DHT22;18974;50.838;4.636;2022-11-20T04:04:22;6.00;99.90
32536;DHT22;18974;50.838;4.636;2022-11-20T04:06:48;5.90;99.90
32536;DHT22;18974;50.838;4.636;2022-11-20T04:09:13;5.90;99.90
32536;DHT22;18974;50.838;4.636;2022-11-20T04:11:40;5.90;99.90
32536;DHT22;18974;50.838;4.636;2022-11-20T04:14:11;5.90;99.90
32536;DHT22;18974;50.838;4.636;2022-11-20T04:16:37;5.90;99.90
32536;DHT22;18974;50.838;4.636;2022-11-20T04:19:08;6.00;99.90
32536;DHT22;18974;50.838;4.636;2022-11-20T04:21:35;5.90;99.90
32536;DHT22;18974;50.838;4.636;2022-11-20T04:24:01;5.90;99.90
32536;DHT22;18974;50.838;4.636;2022-11-20T04:26:28;5.90;99.90
32536;DHT22;18974;50.838;4.636;2022-11-20T04:28:55;6.00;99.90
32536;DHT22;18974;50.838;4.636;2022-11-20T04:31:23;5.90;99.90
32536;DHT22;18974;50.838;4.636;2022-11-20T04:33:50;6.00;99.90
32536;DHT22;18974;50.838;4.636;2022-11-20T04:36:18;5.90;99.90
32536;DHT22;18974;50.838;4.636;2022-11-20T04:38:44;5.90;99.90
32536;DHT22;18974;50.838;4.636;2022-11-20T04:41:18;6.00;99.90
32536;DHT22;18974;50.838;4.636;2022-11-20T04:43:49;6.00;99.90
32536;DHT22;18974;50.838;4.636;2022-11-20T04:46:16;6.00;99.90
32536;DHT22;18974;50.838;4.636;2022-11-20T04:48:42;5.90;99.90
32536;DHT22;18974;50.838;4.636;2022-11-20T04:51:08;5.80;99.90
32536;DHT22;18974;50.838;4.636;2022-11-20T04:53:34;5.90;99.90
32536;DHT22;18974;50.838;4.636;2022-11-20T04:56:03;5.90;99.90
32536;DHT22;18974;50.838;4.636;2022-11-20T04:58:29;5.90;99.90
32536;DHT22;18974;50.838;4.636;2022-11-20T05:01:03;6.00;99.90
32536;DHT22;18974;50.838;4.636;2022-11-20T05:03:29;5.90;99.90
32536;DHT22;18974;50.838;4.636;2022-11-20T05:05:55;5.80;99.90
32536;DHT22;18974;50.838;4.636;2022-11-20T05:08:21;5.80;99.90
32536;DHT22;18974;50.838;4.636;2022-11-20T05:10:47;5.80;99.90
32536;DHT22;18974;50.838;4.636;2022-11-20T05:13:12;5.90;99.90
32536;DHT22;18974;50.838;4.636;2022-11-20T05:15:38;6.00;99.90
32536;DHT22;18974;50.838;4.636;2022-11-20T05:18:04;6.10;99.90
32536;DHT22;18974;50.838;4.636;2022-11-20T05:20:30;6.10;99.90
32536;DHT22;18974;50.838;4.636;2022-11-20T05:22:58;6.00;99.90
32536;DHT22;18974;50.838;4.636;2022-11-20T05:25:24;6.10;99.90
32536;DHT22;18974;50.838;4.636;2022-11-20T05:27:50;6.10;99.90
32536;DHT22;18974;50.838;4.636;2022-11-20T05:30:16;6.10;99.90
32536;DHT22;18974;50.838;4.636;2022-11-20T05:32:42;6.20;99.90
32536;DHT22;18974;50.838;4.636;2022-11-20T05:35:08;6.10;99.90
32536;DHT22;18974;50.838;4.636;2022-11-20T05:37:34;6.10;99.90
32536;DHT22;18974;50.838;4.636;2022-11-20T05:39:59;6.20;99.90
32536;DHT22;18974;50.838;4.636;2022-11-20T05:42:25;6.20;99.90
32536;DHT22;18974;50.838;4.636;2022-11-20T05:45:00;6.20;99.90
32536;DHT22;18974;50.838;4.636;2022-11-20T05:47:27;6.20;99.90
32536;DHT22;18974;50.838;4.636;2022-11-20T05:49:53;6.10;99.90
32536;DHT22;18974;50.838;4.636;2022-11-20T05:52:19;6.00;99.90
32536;DHT22;18974;50.838;4.636;2022-11-20T05:54:45;6.00;99.90
32536;DHT22;18974;50.838;4.636;2022-11-20T05:57:11;6.00;99.90
32536;DHT22;18974;50.838;4.636;2022-11-20T05:59:37;6.10;99.90
32536;DHT22;18974;50.838;4.636;2022-11-20T06:02:02;6.10;99.90
32536;DHT22;18974;50.838;4.636;2022-11-20T06:04:28;6.10;99.90
32536;DHT22;18974;50.838;4.636;2022-11-20T06:06:54;6.10;99.90
32536;DHT22;18974;50.838;4.636;2022-11-20T06:09:19;6.10;99.90
32536;DHT22;18974;50.838;4.636;2022-11-20T06:11:45;6.20;99.90
32536;DHT22;18974;50.838;4.636;2022-11-20T06:14:11;6.20;99.90
32536;DHT22;18974;50.838;4.636;2022-11-20T06:16:36;6.10;99.90
32536;DHT22;18974;50.838;4.636;2022-11-20T06:19:02;6.10;99.90
32536;DHT22;18974;50.838;4.636;2022-11-20T06:21:28;6.10;99.90
32536;DHT22;18974;50.838;4.636;2022-11-20T06:23:53;6.00;99.90
32536;DHT22;18974;50.838;4.636;2022-11-20T06:26:22;5.90;99.90
32536;DHT22;18974;50.838;4.636;2022-11-20T06:28:48;5.90;99.90
32536;DHT22;18974;50.838;4.636;2022-11-20T06:31:16;5.90;99.90
32536;DHT22;18974;50.838;4.636;2022-11-20T06:33:42;6.00;99.90
32536;DHT22;18974;50.838;4.636;2022-11-20T06:36:11;6.00;99.90
32536;DHT22;18974;50.838;4.636;2022-11-20T06:38:37;6.10;99.90
32536;DHT22;18974;50.838;4.636;2022-11-20T06:41:04;6.00;99.90
32536;DHT22;18974;50.838;4.636;2022-11-20T06:43:30;6.10;99.90
32536;DHT22;18974;50.838;4.636;2022-11-20T06:45:57;6.10;99.90
32536;DHT22;18974;50.838;4.636;2022-11-20T06:48:24;6.10;99.90
32536;DHT22;18974;50.838;4.636;2022-11-20T06:50:50;6.10;99.90
32536;DHT22;18974;50.838;4.636;2022-11-20T06:53:16;6.00;99.90
32536;DHT22;18974;50.838;4.636;2022-11-20T06:55:47;6.00;99.90
32536;DHT22;18974;50.838;4.636;2022-11-20T06:58:13;6.00;99.90
32536;DHT22;18974;50.838;4.636;2022-11-20T07:00:39;6.00;99.90
32536;DHT22;18974;50.838;4.636;2022-11-20T07:03:07;6.10;99.90
32536;DHT22;18974;50.838;4.636;2022-11-20T07:05:34;6.10;99.90
32536;DHT22;18974;50.838;4.636;2022-11-20T07:08:00;6.00;99.90
32536;DHT22;18974;50.838;4.636;2022-11-20T07:10:26;6.00;99.90
32536;DHT22;18974;50.838;4.636;2022-11-20T07:12:52;6.10;99.90
32536;DHT22;18974;50.838;4.636;2022-11-20T07:15:20;6.00;99.90
32536;DHT22;18974;50.838;4.636;2022-11-20T07:17:46;6.20;99.90
32536;DHT22;18974;50.838;4.636;2022-11-20T07:20:13;6.20;99.90
32536;DHT22;18974;50.838;4.636;2022-11-20T07:22:39;6.30;99.90
32536;DHT22;18974;50.838;4.636;2022-11-20T07:25:05;6.20;99.90
32536;DHT22;18974;50.838;4.636;2022-11-20T07:27:31;6.20;99.90
32536;DHT22;18974;50.838;4.636;2022-11-20T07:29:57;6.30;99.90
32536;DHT22;18974;50.838;4.636;2022-11-20T07:32:23;6.20;99.90
32536;DHT22;18974;50.838;4.636;2022-11-20T07:34:49;6.30;99.90
32536;DHT22;18974;50.838;4.636;2022-11-20T07:37:15;6.30;99.90
32536;DHT22;18974;50.838;4.636;2022-11-20T07:39:41;6.30;99.90
32536;DHT22;18974;50.838;4.636;2022-11-20T07:42:07;6.30;99.90
32536;DHT22;18974;50.838;4.636;2022-11-20T07:44:34;6.40;99.90
32536;DHT22;18974;50.838;4.636;2022-11-20T07:47:00;6.40;99.90
32536;DHT22;18974;50.838;4.636;2022-11-20T07:49:25;6.50;99.90
32536;DHT22;18974;50.838;4.636;2022-11-20T07:51:51;6.50;99.90
32536;DHT22;18974;50.838;4.636;2022-11-20T07:54:19;6.60;99.90
32536;DHT22;18974;50.838;4.636;2022-11-20T07:56:46;6.60;99.90
32536;DHT22;18974;50.838;4.636;2022-11-20T07:59:12;6.60;99.90
32536;DHT22;18974;50.838;4.636;2022-11-20T08:01:41;6.70;99.90
32536;DHT22;18974;50.838;4.636;2022-11-20T08:04:07;6.80;99.90
32536;DHT22;18974;50.838;4.636;2022-11-20T08:06:33;6.80;99.90
32536;DHT22;18974;50.838;4.636;2022-11-20T08:08:59;6.90;99.90
32536;DHT22;18974;50.838;4.636;2022-11-20T08:11:25;6.90;99.90
32536;DHT22;18974;50.838;4.636;2022-11-20T08:14:08;7.10;99.90
32536;DHT22;18974;50.838;4.636;2022-11-20T08:16:40;7.10;99.90
32536;DHT22;18974;50.838;4.636;2022-11-20T08:19:06;7.30;99.90
32536;DHT22;18974;50.838;4.636;2022-11-20T08:21:32;7.30;99.90
32536;DHT22;18974;50.838;4.636;2022-11-20T08:23:58;7.30;99.90
32536;DHT22;18974;50.838;4.636;2022-11-20T08:26:25;7.40;99.90
32536;DHT22;18974;50.838;4.636;2022-11-20T08:28:57;7.30;99.90
32536;DHT22;18974;50.838;4.636;2022-11-20T08:31:25;7.30;99.90
32536;DHT22;18974;50.838;4.636;2022-11-20T08:33:51;7.40;99.90
32536;DHT22;18974;50.838;4.636;2022-11-20T08:36:17;7.40;99.90
32536;DHT22;18974;50.838;4.636;2022-11-20T08:38:47;7.50;99.90
32536;DHT22;18974;50.838;4.636;2022-11-20T08:41:13;7.60;99.90
32536;DHT22;18974;50.838;4.636;2022-11-20T08:44:03;7.60;99.90
32536;DHT22;18974;50.838;4.636;2022-11-20T08:46:34;7.60;99.90
32536;DHT22;18974;50.838;4.636;2022-11-20T08:49:01;7.70;99.90
32536;DHT22;18974;50.838;4.636;2022-11-20T08:51:27;7.70;99.90
32536;DHT22;18974;50.838;4.636;2022-11-20T08:53:53;7.80;99.90
32536;DHT22;18974;50.838;4.636;2022-11-20T08:56:19;7.90;99.90
32536;DHT22;18974;50.838;4.636;2022-11-20T08:58:44;7.90;99.90
32536;DHT22;18974;50.838;4.636;2022-11-20T09:01:13;8.00;99.90
32536;DHT22;18974;50.838;4.636;2022-11-20T09:03:39;7.90;99.90
32536;DHT22;18974;50.838;4.636;2022-11-20T09:06:06;8.00;99.90
32536;DHT22;18974;50.838;4.636;2022-11-20T09:08:32;7.90;99.90
32536;DHT22;18974;50.838;4.636;2022-11-20T09:10:59;8.00;99.90
32536;DHT22;18974;50.838;4.636;2022-11-20T09:13:26;8.10;99.90
32536;DHT22;18974;50.838;4.636;2022-11-20T09:15:57;8.10;99.90
32536;DHT22;18974;50.838;4.636;2022-11-20T09:18:24;8.20;99.90
32536;DHT22;18974;50.838;4.636;2022-11-20T09:20:50;8.30;99.90
32536;DHT22;18974;50.838;4.636;2022-11-20T09:23:16;8.40;99.90
32536;DHT22;18974;50.838;4.636;2022-11-20T09:25:42;8.40;99.90
32536;DHT22;18974;50.838;4.636;2022-11-20T09:28:08;8.40;99.90
32536;DHT22;18974;50.838;4.636;2022-11-20T09:30:34;8.40;99.90
32536;DHT22;18974;50.838;4.636;2022-11-20T09:33:00;8.50;99.90
32536;DHT22;18974;50.838;4.636;2022-11-20T09:35:26;8.40;99.90
32536;DHT22;18974;50.838;4.636;2022-11-20T09:37:52;8.40;99.90
32536;DHT22;18974;50.838;4.636;2022-11-20T09:40:22;8.40;99.90
32536;DHT22;18974;50.838;4.636;2022-11-20T09:42:59;8.40;99.90
32536;DHT22;18974;50.838;4.636;2022-11-20T09:48:16;8.60;99.90
32536;DHT22;18974;50.838;4.636;2022-11-20T09:54:03;8.80;99.90
32536;DHT22;18974;50.838;4.636;2022-11-20T09:56:34;8.70;99.90
32536;DHT22;18974;50.838;4.636;2022-11-20T09:59:04;8.80;99.90
32536;DHT22;18974;50.838;4.636;2022-11-20T10:01:34;8.70;99.90
32536;DHT22;18974;50.838;4.636;2022-11-20T10:04:24;8.70;99.90
32536;DHT22;18974;50.838;4.636;2022-11-20T10:07:06;8.70;99.90
32536;DHT22;18974;50.838;4.636;2022-11-20T10:09:37;8.80;99.90
32536;DHT22;18974;50.838;4.636;2022-11-20T10:20:39;8.90;99.90
32536;DHT22;18974;50.838;4.636;2022-11-20T10:23:42;9.00;99.90
32536;DHT22;18974;50.838;4.636;2022-11-20T10:31:32;9.20;99.90
32536;DHT22;18974;50.838;4.636;2022-11-20T10:34:01;9.30;99.90
32536;DHT22;18974;50.838;4.636;2022-11-20T10:36:34;9.50;99.90
32536;DHT22;18974;50.838;4.636;2022-11-20T10:39:06;9.50;99.90
32536;DHT22;18974;50.838;4.636;2022-11-20T10:41:41;9.60;99.90
32536;DHT22;18974;50.838;4.636;2022-11-20T10:44:16;9.70;99.90
32536;DHT22;18974;50.838;4.636;2022-11-20T10:47:01;9.80;99.90
32536;DHT22;18974;50.838;4.636;2022-11-20T10:49:27;9.90;99.90
32536;DHT22;18974;50.838;4.636;2022-11-20T10:54:59;10.00;99.90
32536;DHT22;18974;50.838;4.636;2022-11-20T11:00:03;10.20;99.90
32536;DHT22;18974;50.838;4.636;2022-11-20T11:07:47;10.30;99.90
32536;DHT22;18974;50.838;4.636;2022-11-20T11:10:21;10.40;99.90
32536;DHT22;18974;50.838;4.636;2022-11-20T11:12:48;10.40;99.90
32536;DHT22;18974;50.838;4.636;2022-11-20T11:15:25;10.40;99.90
32536;DHT22;18974;50.838;4.636;2022-11-20T11:17:53;10.40;99.90
32536;DHT22;18974;50.838;4.636;2022-11-20T11:20:21;10.40;99.90
32536;DHT22;18974;50.838;4.636;2022-11-20T11:22:53;10.40;99.90
32536;DHT22;18974;50.838;4.636;2022-11-20T11:25:30;10.50;99.90
32536;DHT22;18974;50.838;4.636;2022-11-20T11:27:58;10.50;99.90
32536;DHT22;18974;50.838;4.636;2022-11-20T11:30:26;10.50;99.90
32536;DHT22;18974;50.838;4.636;2022-11-20T11:33:03;10.40;99.90
32536;DHT22;18974;50.838;4.636;2022-11-20T11:35:29;10.50;99.90
32536;DHT22;18974;50.838;4.636;2022-11-20T11:38:04;10.30;99.90
32536;DHT22;18974;50.838;4.636;2022-11-20T11:40:32;10.40;99.90
32536;DHT22;18974;50.838;4.636;2022-11-20T11:43:05;10.40;99.90
32536;DHT22;18974;50.838;4.636;2022-11-20T11:45:55;10.40;99.90
32536;DHT22;18974;50.838;4.636;2022-11-20T11:48:21;10.30;99.90
32536;DHT22;18974;50.838;4.636;2022-11-20T11:50:50;10.30;99.90
32536;DHT22;18974;50.838;4.636;2022-11-20T11:53:19;10.30;99.90
32536;DHT22;18974;50.838;4.636;2022-11-20T11:56:03;10.30;99.90
32536;DHT22;18974;50.838;4.636;2022-11-20T11:58:46;10.40;99.90
32536;DHT22;18974;50.838;4.636;2022-11-20T12:01:27;10.40;99.90
32536;DHT22;18974;50.838;4.636;2022-11-20T12:06:43;10.10;99.90
32536;DHT22;18974;50.838;4.636;2022-11-20T12:09:10;10.10;99.90
32536;DHT22;18974;50.838;4.636;2022-11-20T12:12:46;10.10;99.90
32536;DHT22;18974;50.838;4.636;2022-11-20T12:14:43;10.00;99.90
32536;DHT22;18974;50.838;4.636;2022-11-20T12:17:14;9.90;99.90
32536;DHT22;18974;50.838;4.636;2022-11-20T12:19:40;9.90;99.90
32536;DHT22;18974;50.838;4.636;2022-11-20T12:22:51;9.80;99.90
32536;DHT22;18974;50.838;4.636;2022-11-20T12:25:30;9.80;99.90
32536;DHT22;18974;50.838;4.636;2022-11-20T12:36:30;9.60;99.90
32536;DHT22;18974;50.838;4.636;2022-11-20T12:48:12;9.50;99.90
32536;DHT22;18974;50.838;4.636;2022-11-20T13:02:23;9.30;99.90
32536;DHT22;18974;50.838;4.636;2022-11-20T13:07:46;9.10;99.90
32536;DHT22;18974;50.838;4.636;2022-11-20T13:10:31;9.10;99.90
32536;DHT22;18974;50.838;4.636;2022-11-20T13:13:14;9.20;99.90
32536;DHT22;18974;50.838;4.636;2022-11-20T13:18:37;9.10;99.90
32536;DHT22;18974;50.838;4.636;2022-11-20T13:21:22;9.20;99.90
32536;DHT22;18974;50.838;4.636;2022-11-20T13:23:48;9.20;99.90
32536;DHT22;18974;50.838;4.636;2022-11-20T13:26:20;9.30;99.90
32536;DHT22;18974;50.838;4.636;2022-11-20T13:28:59;9.30;99.90
32536;DHT22;18974;50.838;4.636;2022-11-20T13:31:30;9.20;99.90
32536;DHT22;18974;50.838;4.636;2022-11-20T13:33:57;9.20;99.90
32536;DHT22;18974;50.838;4.636;2022-11-20T13:36:26;9.20;99.90
32536;DHT22;18974;50.838;4.636;2022-11-20T13:38:55;9.10;99.90
32536;DHT22;18974;50.838;4.636;2022-11-20T13:46:41;9.10;99.90
32536;DHT22;18974;50.838;4.636;2022-11-20T13:49:16;9.20;99.90
32536;DHT22;18974;50.838;4.636;2022-11-20T13:51:51;9.10;99.90
32536;DHT22;18974;50.838;4.636;2022-11-20T13:59:57;8.80;99.90
32536;DHT22;18974;50.838;4.636;2022-11-20T14:02:26;8.80;99.90
32536;DHT22;18974;50.838;4.636;2022-11-20T14:04:54;8.90;99.90
32536;DHT22;18974;50.838;4.636;2022-11-20T14:07:25;8.80;99.90
32536;DHT22;18974;50.838;4.636;2022-11-20T14:09:56;8.90;99.90
32536;DHT22;18974;50.838;4.636;2022-11-20T14:12:28;8.90;99.90
32536;DHT22;18974;50.838;4.636;2022-11-20T14:14:54;8.90;99.90
32536;DHT22;18974;50.838;4.636;2022-11-20T14:17:23;8.90;99.90
32536;DHT22;18974;50.838;4.636;2022-11-20T14:19:51;8.90;99.90
32536;DHT22;18974;50.838;4.636;2022-11-20T14:22:24;8.90;99.90
32536;DHT22;18974;50.838;4.636;2022-11-20T14:27:34;8.90;99.90
32536;DHT22;18974;50.838;4.636;2022-11-20T14:30:01;8.80;99.90
32536;DHT22;18974;50.838;4.636;2022-11-20T14:32:29;8.90;99.90
32536;DHT22;18974;50.838;4.636;2022-11-20T14:35:02;8.80;99.90
32536;DHT22;18974;50.838;4.636;2022-11-20T14:37:32;8.80;99.90
32536;DHT22;18974;50.838;4.636;2022-11-20T14:39:58;8.70;99.90
32536;DHT22;18974;50.838;4.636;2022-11-20T14:42:26;8.80;99.90
32536;DHT22;18974;50.838;4.636;2022-11-20T14:44:57;8.70;99.90
32536;DHT22;18974;50.838;4.636;2022-11-20T14:47:25;8.70;99.90
32536;DHT22;18974;50.838;4.636;2022-11-20T14:49:53;8.70;99.90
32536;DHT22;18974;50.838;4.636;2022-11-20T14:52:25;8.70;99.90
32536;DHT22;18974;50.838;4.636;2022-11-20T14:54:56;8.80;99.90
32536;DHT22;18974;50.838;4.636;2022-11-20T14:57:31;8.80;99.90
32536;DHT22;18974;50.838;4.636;2022-11-20T15:02:45;8.70;99.90
32536;DHT22;18974;50.838;4.636;2022-11-20T15:05:11;8.70;99.90
32536;DHT22;18974;50.838;4.636;2022-11-20T15:07:40;8.80;99.90
32536;DHT22;18974;50.838;4.636;2022-11-20T15:10:24;8.80;99.90
32536;DHT22;18974;50.838;4.636;2022-11-20T15:12:53;8.80;99.90
32536;DHT22;18974;50.838;4.636;2022-11-20T15:15:24;8.90;99.90
32536;DHT22;18974;50.838;4.636;2022-11-20T15:17:52;8.90;99.90
32536;DHT22;18974;50.838;4.636;2022-11-20T15:20:18;8.90;99.90
32536;DHT22;18974;50.838;4.636;2022-11-20T15:22:44;9.00;99.90
32536;DHT22;18974;50.838;4.636;2022-11-20T15:25:17;8.90;99.90
32536;DHT22;18974;50.838;4.636;2022-11-20T15:27:44;9.00;99.90
32536;DHT22;18974;50.838;4.636;2022-11-20T15:30:19;9.00;99.90
32536;DHT22;18974;50.838;4.636;2022-11-20T15:32:45;9.00;99.90
32536;DHT22;18974;50.838;4.636;2022-11-20T15:35:13;9.00;99.90
32536;DHT22;18974;50.838;4.636;2022-11-20T15:37:39;9.10;99.90
32536;DHT22;18974;50.838;4.636;2022-11-20T15:40:06;9.10;99.90
32536;DHT22;18974;50.838;4.636;2022-11-20T15:42:33;9.10;99.90
32536;DHT22;18974;50.838;4.636;2022-11-20T15:44:59;9.10;99.90
32536;DHT22;18974;50.838;4.636;2022-11-20T15:47:28;9.00;99.90
32536;DHT22;18974;50.838;4.636;2022-11-20T15:49:55;9.00;99.90
32536;DHT22;18974;50.838;4.636;2022-11-20T15:52:21;9.10;99.90
32536;DHT22;18974;50.838;4.636;2022-11-20T15:54:47;9.10;99.90
32536;DHT22;18974;50.838;4.636;2022-11-20T15:57:12;9.10;99.90
32536;DHT22;18974;50.838;4.636;2022-11-20T15:59:39;9.20;99.90
32536;DHT22;18974;50.838;4.636;2022-11-20T16:02:14;9.10;99.90
32536;DHT22;18974;50.838;4.636;2022-11-20T16:04:40;9.10;99.90
32536;DHT22;18974;50.838;4.636;2022-11-20T16:07:06;9.30;99.90
32536;DHT22;18974;50.838;4.636;2022-11-20T16:09:32;9.20;99.90
32536;DHT22;18974;50.838;4.636;2022-11-20T16:11:58;9.20;99.90
32536;DHT22;18974;50.838;4.636;2022-11-20T16:14:27;9.20;99.90
32536;DHT22;18974;50.838;4.636;2022-11-20T16:17:11;9.10;99.90
32536;DHT22;18974;50.838;4.636;2022-11-20T16:19:37;9.00;99.90
32536;DHT22;18974;50.838;4.636;2022-11-20T16:22:03;9.10;99.90
32536;DHT22;18974;50.838;4.636;2022-11-20T16:24:29;9.10;99.90
32536;DHT22;18974;50.838;4.636;2022-11-20T16:26:55;9.10;99.90
32536;DHT22;18974;50.838;4.636;2022-11-20T16:29:21;9.00;99.90
32536;DHT22;18974;50.838;4.636;2022-11-20T16:31:47;9.10;99.90
32536;DHT22;18974;50.838;4.636;2022-11-20T16:34:15;9.10;99.90
32536;DHT22;18974;50.838;4.636;2022-11-20T16:36:42;9.00;99.90
32536;DHT22;18974;50.838;4.636;2022-11-20T16:39:09;9.10;99.90
32536;DHT22;18974;50.838;4.636;2022-11-20T16:41:35;9.00;99.90
32536;DHT22;18974;50.838;4.636;2022-11-20T16:44:02;9.00;99.90
32536;DHT22;18974;50.838;4.636;2022-11-20T16:46:31;8.90;99.90
32536;DHT22;18974;50.838;4.636;2022-11-20T16:49:02;9.00;99.90
32536;DHT22;18974;50.838;4.636;2022-11-20T16:51:29;9.10;99.90
32536;DHT22;18974;50.838;4.636;2022-11-20T16:53:56;9.10;99.90
32536;DHT22;18974;50.838;4.636;2022-11-20T16:56:25;9.00;99.90
32536;DHT22;18974;50.838;4.636;2022-11-20T16:58:53;9.10;99.90
32536;DHT22;18974;50.838;4.636;2022-11-20T17:01:21;9.20;99.90
32536;DHT22;18974;50.838;4.636;2022-11-20T17:03:59;9.30;99.90
32536;DHT22;18974;50.838;4.636;2022-11-20T17:06:28;9.20;99.90
32536;DHT22;18974;50.838;4.636;2022-11-20T17:08:55;9.20;99.90
32536;DHT22;18974;50.838;4.636;2022-11-20T17:11:21;9.20;99.90
32536;DHT22;18974;50.838;4.636;2022-11-20T17:13:47;9.10;99.90
32536;DHT22;18974;50.838;4.636;2022-11-20T17:16:16;9.10;99.90
32536;DHT22;18974;50.838;4.636;2022-11-20T17:18:42;9.00;99.90
32536;DHT22;18974;50.838;4.636;2022-11-20T17:21:09;8.90;99.90
32536;DHT22;18974;50.838;4.636;2022-11-20T17:23:37;8.90;99.90
32536;DHT22;18974;50.838;4.636;2022-11-20T17:26:05;8.90;99.90